sensor_id;sensor_type;location;lat;lon;timestamp;P1;durP1;ratioP1;P2;durP2;ratioP2
45620;SDS011;31345;51.522;10.702;2022-09-04T00:01:48;6.15;;;2.50;;
45620;SDS011;31345;51.522;10.702;2022-09-04T00:04:25;4.90;;;2.88;;
45620;SDS011;31345;51.522;10.702;2022-09-04T00:07:02;5.30;;;2.88;;
45620;SDS011;31345;51.522;10.702;2022-09-04T00:09:38;6.47;;;2.50;;
45620;SDS011;31345;51.522;10.702;2022-09-04T00:12:16;6.72;;;3.03;;
45620;SDS011;31345;51.522;10.702;2022-09-04T00:14:50;4.10;;;2.50;;
45620;SDS011;31345;51.522;10.702;2022-09-04T00:17:26;4.07;;;2.40;;
45620;SDS011;31345;51.522;10.702;2022-09-04T00:19:57;3.70;;;2.40;;
45620;SDS011;31345;51.522;10.702;2022-09-04T00:22:30;5.95;;;2.63;;
45620;SDS011;31345;51.522;10.702;2022-09-04T00:25:06;6.28;;;3.05;;
45620;SDS011;31345;51.522;10.702;2022-09-04T00:27:46;7.45;;;3.00;;
45620;SDS011;31345;51.522;10.702;2022-09-04T00:30:18;4.28;;;2.42;;
45620;SDS011;31345;51.522;10.702;2022-09-04T00:32:50;7.95;;;2.70;;
45620;SDS011;31345;51.522;10.702;2022-09-04T00:35:24;5.13;;;2.70;;
45620;SDS011;31345;51.522;10.702;2022-09-04T00:37:57;5.32;;;3.03;;
45620;SDS011;31345;51.522;10.702;2022-09-04T00:40:30;6.80;;;3.05;;
45620;SDS011;31345;51.522;10.702;2022-09-04T00:46:08;3.78;;;2.53;;
45620;SDS011;31345;51.522;10.702;2022-09-04T00:48:54;6.68;;;2.80;;
45620;SDS011;31345;51.522;10.702;2022-09-04T00:51:39;5.43;;;2.80;;
45620;SDS011;31345;51.522;10.702;2022-09-04T00:54:22;5.38;;;2.75;;
45620;SDS011;31345;51.522;10.702;2022-09-04T00:57:10;3.47;;;2.45;;
45620;SDS011;31345;51.522;10.702;2022-09-04T01:00:03;5.78;;;2.70;;
45620;SDS011;31345;51.522;10.702;2022-09-04T01:02:42;5.15;;;2.67;;
45620;SDS011;31345;51.522;10.702;2022-09-04T01:05:26;5.63;;;2.90;;
45620;SDS011;31345;51.522;10.702;2022-09-04T01:08:15;4.50;;;2.50;;
45620;SDS011;31345;51.522;10.702;2022-09-04T01:10:50;5.88;;;2.95;;
45620;SDS011;31345;51.522;10.702;2022-09-04T01:13:33;5.57;;;2.80;;
45620;SDS011;31345;51.522;10.702;2022-09-04T01:16:08;4.75;;;3.08;;
45620;SDS011;31345;51.522;10.702;2022-09-04T01:18:41;5.00;;;2.88;;
45620;SDS011;31345;51.522;10.702;2022-09-04T01:21:23;8.85;;;3.10;;
45620;SDS011;31345;51.522;10.702;2022-09-04T01:27:31;5.43;;;2.75;;
45620;SDS011;31345;51.522;10.702;2022-09-04T01:30:04;5.75;;;2.67;;
45620;SDS011;31345;51.522;10.702;2022-09-04T01:32:40;7.97;;;3.28;;
45620;SDS011;31345;51.522;10.702;2022-09-04T01:35:14;4.43;;;2.58;;
45620;SDS011;31345;51.522;10.702;2022-09-04T01:37:54;4.43;;;2.50;;
45620;SDS011;31345;51.522;10.702;2022-09-04T01:40:37;3.83;;;2.60;;
45620;SDS011;31345;51.522;10.702;2022-09-04T01:43:12;4.22;;;3.08;;
45620;SDS011;31345;51.522;10.702;2022-09-04T01:48:39;6.20;;;3.15;;
45620;SDS011;31345;51.522;10.702;2022-09-04T01:51:15;4.70;;;3.00;;
45620;SDS011;31345;51.522;10.702;2022-09-04T01:53:52;3.47;;;2.50;;
45620;SDS011;31345;51.522;10.702;2022-09-04T01:56:30;5.32;;;2.88;;
45620;SDS011;31345;51.522;10.702;2022-09-04T01:59:07;4.72;;;2.55;;
45620;SDS011;31345;51.522;10.702;2022-09-04T02:01:43;4.53;;;3.00;;
45620;SDS011;31345;51.522;10.702;2022-09-04T02:04:20;6.53;;;2.83;;
45620;SDS011;31345;51.522;10.702;2022-09-04T02:06:58;6.63;;;3.08;;
45620;SDS011;31345;51.522;10.702;2022-09-04T02:12:10;4.03;;;2.72;;
45620;SDS011;31345;51.522;10.702;2022-09-04T02:14:55;5.88;;;2.80;;
45620;SDS011;31345;51.522;10.702;2022-09-04T02:17:31;6.93;;;3.13;;
45620;SDS011;31345;51.522;10.702;2022-09-04T02:20:20;4.15;;;2.85;;
45620;SDS011;31345;51.522;10.702;2022-09-04T02:22:53;5.97;;;2.85;;
45620;SDS011;31345;51.522;10.702;2022-09-04T02:25:29;4.65;;;2.80;;
45620;SDS011;31345;51.522;10.702;2022-09-04T02:28:06;6.45;;;3.03;;
45620;SDS011;31345;51.522;10.702;2022-09-04T02:30:48;4.15;;;2.80;;
45620;SDS011;31345;51.522;10.702;2022-09-04T02:33:24;5.22;;;2.90;;
45620;SDS011;31345;51.522;10.702;2022-09-04T02:36:04;6.45;;;3.00;;
45620;SDS011;31345;51.522;10.702;2022-09-04T02:38:36;4.38;;;2.88;;
45620;SDS011;31345;51.522;10.702;2022-09-04T02:41:14;4.25;;;2.83;;
45620;SDS011;31345;51.522;10.702;2022-09-04T02:43:56;4.70;;;2.90;;
45620;SDS011;31345;51.522;10.702;2022-09-04T02:46:32;7.43;;;3.03;;
45620;SDS011;31345;51.522;10.702;2022-09-04T02:49:11;6.15;;;3.70;;
45620;SDS011;31345;51.522;10.702;2022-09-04T02:51:50;4.90;;;3.28;;
45620;SDS011;31345;51.522;10.702;2022-09-04T02:54:39;6.22;;;3.50;;
45620;SDS011;31345;51.522;10.702;2022-09-04T02:57:20;7.10;;;3.20;;
45620;SDS011;31345;51.522;10.702;2022-09-04T03:00:00;4.78;;;3.30;;
45620;SDS011;31345;51.522;10.702;2022-09-04T03:02:35;8.18;;;3.58;;
45620;SDS011;31345;51.522;10.702;2022-09-04T03:05:10;6.25;;;3.40;;
45620;SDS011;31345;51.522;10.702;2022-09-04T03:07:47;5.47;;;3.30;;
45620;SDS011;31345;51.522;10.702;2022-09-04T03:10:21;8.48;;;3.70;;
45620;SDS011;31345;51.522;10.702;2022-09-04T03:12:58;5.90;;;3.78;;
45620;SDS011;31345;51.522;10.702;2022-09-04T03:15:31;7.45;;;3.50;;
45620;SDS011;31345;51.522;10.702;2022-09-04T03:18:11;6.13;;;3.10;;
45620;SDS011;31345;51.522;10.702;2022-09-04T03:20:46;5.05;;;3.55;;
45620;SDS011;31345;51.522;10.702;2022-09-04T03:23:20;6.80;;;3.50;;
45620;SDS011;31345;51.522;10.702;2022-09-04T03:25:56;5.70;;;3.33;;
45620;SDS011;31345;51.522;10.702;2022-09-04T03:28:34;5.82;;;3.45;;
45620;SDS011;31345;51.522;10.702;2022-09-04T03:31:21;5.30;;;3.70;;
45620;SDS011;31345;51.522;10.702;2022-09-04T03:33:59;5.75;;;3.47;;
45620;SDS011;31345;51.522;10.702;2022-09-04T03:36:47;5.63;;;3.30;;
45620;SDS011;31345;51.522;10.702;2022-09-04T03:39:24;8.02;;;3.40;;
45620;SDS011;31345;51.522;10.702;2022-09-04T03:42:01;4.43;;;3.30;;
45620;SDS011;31345;51.522;10.702;2022-09-04T03:44:41;5.75;;;3.58;;
45620;SDS011;31345;51.522;10.702;2022-09-04T03:47:22;5.95;;;3.55;;
45620;SDS011;31345;51.522;10.702;2022-09-04T03:50:06;7.95;;;3.53;;
45620;SDS011;31345;51.522;10.702;2022-09-04T03:52:47;6.68;;;3.33;;
45620;SDS011;31345;51.522;10.702;2022-09-04T03:55:29;8.45;;;3.85;;
45620;SDS011;31345;51.522;10.702;2022-09-04T03:58:16;7.07;;;4.05;;
45620;SDS011;31345;51.522;10.702;2022-09-04T04:00:50;6.00;;;3.58;;
45620;SDS011;31345;51.522;10.702;2022-09-04T04:03:31;5.05;;;3.53;;
45620;SDS011;31345;51.522;10.702;2022-09-04T04:06:17;8.15;;;4.13;;
45620;SDS011;31345;51.522;10.702;2022-09-04T04:09:04;7.05;;;3.47;;
45620;SDS011;31345;51.522;10.702;2022-09-04T04:11:48;4.55;;;3.72;;
45620;SDS011;31345;51.522;10.702;2022-09-04T04:14:36;3.97;;;3.58;;
45620;SDS011;31345;51.522;10.702;2022-09-04T04:17:22;5.88;;;3.33;;
45620;SDS011;31345;51.522;10.702;2022-09-04T04:20:06;7.72;;;3.90;;
45620;SDS011;31345;51.522;10.702;2022-09-04T04:22:53;6.82;;;3.80;;
45620;SDS011;31345;51.522;10.702;2022-09-04T04:25:37;6.13;;;3.58;;
45620;SDS011;31345;51.522;10.702;2022-09-04T04:28:21;6.47;;;3.67;;
45620;SDS011;31345;51.522;10.702;2022-09-04T04:31:01;5.38;;;4.00;;
45620;SDS011;31345;51.522;10.702;2022-09-04T04:33:41;6.65;;;3.83;;
45620;SDS011;31345;51.522;10.702;2022-09-04T04:36:16;4.75;;;3.75;;
45620;SDS011;31345;51.522;10.702;2022-09-04T04:38:59;7.30;;;3.83;;
45620;SDS011;31345;51.522;10.702;2022-09-04T04:41:42;6.18;;;3.72;;
45620;SDS011;31345;51.522;10.702;2022-09-04T04:44:50;7.53;;;3.92;;
45620;SDS011;31345;51.522;10.702;2022-09-04T04:47:53;6.00;;;3.65;;
45620;SDS011;31345;51.522;10.702;2022-09-04T04:50:39;6.20;;;4.10;;
45620;SDS011;31345;51.522;10.702;2022-09-04T04:53:16;6.88;;;3.97;;
45620;SDS011;31345;51.522;10.702;2022-09-04T04:55:54;5.07;;;3.47;;
45620;SDS011;31345;51.522;10.702;2022-09-04T04:58:27;5.22;;;3.50;;
45620;SDS011;31345;51.522;10.702;2022-09-04T05:01:07;5.93;;;3.60;;
45620;SDS011;31345;51.522;10.702;2022-09-04T05:03:50;6.30;;;3.90;;
45620;SDS011;31345;51.522;10.702;2022-09-04T05:06:29;6.35;;;3.22;;
45620;SDS011;31345;51.522;10.702;2022-09-04T05:09:06;4.82;;;3.30;;
45620;SDS011;31345;51.522;10.702;2022-09-04T05:11:45;5.82;;;3.20;;
45620;SDS011;31345;51.522;10.702;2022-09-04T05:14:25;6.78;;;3.78;;
45620;SDS011;31345;51.522;10.702;2022-09-04T05:17:04;4.80;;;3.53;;
45620;SDS011;31345;51.522;10.702;2022-09-04T05:19:43;5.47;;;3.97;;
45620;SDS011;31345;51.522;10.702;2022-09-04T05:22:16;5.68;;;3.30;;
45620;SDS011;31345;51.522;10.702;2022-09-04T05:24:53;6.50;;;3.75;;
45620;SDS011;31345;51.522;10.702;2022-09-04T05:27:34;6.32;;;3.50;;
45620;SDS011;31345;51.522;10.702;2022-09-04T05:30:10;6.68;;;3.70;;
45620;SDS011;31345;51.522;10.702;2022-09-04T05:32:44;5.43;;;3.47;;
45620;SDS011;31345;51.522;10.702;2022-09-04T05:35:19;8.20;;;3.60;;
45620;SDS011;31345;51.522;10.702;2022-09-04T05:37:58;7.47;;;3.75;;
45620;SDS011;31345;51.522;10.702;2022-09-04T05:40:37;8.30;;;3.63;;
45620;SDS011;31345;51.522;10.702;2022-09-04T05:43:21;6.75;;;3.67;;
45620;SDS011;31345;51.522;10.702;2022-09-04T05:46:02;7.53;;;3.92;;
45620;SDS011;31345;51.522;10.702;2022-09-04T05:48:34;4.78;;;3.75;;
45620;SDS011;31345;51.522;10.702;2022-09-04T05:51:24;6.68;;;3.47;;
45620;SDS011;31345;51.522;10.702;2022-09-04T05:54:12;6.15;;;3.63;;
45620;SDS011;31345;51.522;10.702;2022-09-04T05:56:58;5.90;;;3.80;;
45620;SDS011;31345;51.522;10.702;2022-09-04T06:02:44;6.78;;;3.80;;
45620;SDS011;31345;51.522;10.702;2022-09-04T06:05:33;6.65;;;3.63;;
45620;SDS011;31345;51.522;10.702;2022-09-04T06:08:13;6.70;;;3.75;;
45620;SDS011;31345;51.522;10.702;2022-09-04T06:10:56;6.22;;;3.80;;
45620;SDS011;31345;51.522;10.702;2022-09-04T06:16:34;7.05;;;3.78;;
45620;SDS011;31345;51.522;10.702;2022-09-04T06:19:18;10.00;;;4.00;;
45620;SDS011;31345;51.522;10.702;2022-09-04T06:22:13;8.73;;;3.67;;
45620;SDS011;31345;51.522;10.702;2022-09-04T06:24:56;5.15;;;3.20;;
45620;SDS011;31345;51.522;10.702;2022-09-04T06:27:42;9.20;;;3.75;;
45620;SDS011;31345;51.522;10.702;2022-09-04T06:30:25;7.82;;;4.00;;
45620;SDS011;31345;51.522;10.702;2022-09-04T06:33:03;9.65;;;4.20;;
45620;SDS011;31345;51.522;10.702;2022-09-04T06:35:44;8.60;;;3.92;;
45620;SDS011;31345;51.522;10.702;2022-09-04T06:38:38;6.97;;;4.25;;
45620;SDS011;31345;51.522;10.702;2022-09-04T06:41:19;8.43;;;5.63;;
45620;SDS011;31345;51.522;10.702;2022-09-04T06:44:02;9.05;;;5.30;;
45620;SDS011;31345;51.522;10.702;2022-09-04T06:46:41;10.77;;;5.75;;
45620;SDS011;31345;51.522;10.702;2022-09-04T06:49:16;6.15;;;4.40;;
45620;SDS011;31345;51.522;10.702;2022-09-04T06:51:55;8.00;;;4.90;;
45620;SDS011;31345;51.522;10.702;2022-09-04T06:54:41;6.32;;;4.80;;
45620;SDS011;31345;51.522;10.702;2022-09-04T06:57:23;5.70;;;4.65;;
45620;SDS011;31345;51.522;10.702;2022-09-04T07:00:09;7.43;;;3.95;;
45620;SDS011;31345;51.522;10.702;2022-09-04T07:02:46;8.68;;;3.88;;
45620;SDS011;31345;51.522;10.702;2022-09-04T07:05:28;6.50;;;4.30;;
45620;SDS011;31345;51.522;10.702;2022-09-04T07:08:06;5.95;;;4.30;;
45620;SDS011;31345;51.522;10.702;2022-09-04T07:10:41;8.15;;;4.05;;
45620;SDS011;31345;51.522;10.702;2022-09-04T07:13:18;7.05;;;4.28;;
45620;SDS011;31345;51.522;10.702;2022-09-04T07:16:02;6.78;;;4.35;;
45620;SDS011;31345;51.522;10.702;2022-09-04T07:18:40;10.95;;;4.50;;
45620;SDS011;31345;51.522;10.702;2022-09-04T07:21:23;7.32;;;4.22;;
45620;SDS011;31345;51.522;10.702;2022-09-04T07:23:58;6.75;;;4.30;;
45620;SDS011;31345;51.522;10.702;2022-09-04T07:26:32;10.20;;;4.28;;
45620;SDS011;31345;51.522;10.702;2022-09-04T07:29:11;7.90;;;4.43;;
45620;SDS011;31345;51.522;10.702;2022-09-04T07:31:54;8.25;;;4.53;;
45620;SDS011;31345;51.522;10.702;2022-09-04T07:34:28;7.53;;;4.47;;
45620;SDS011;31345;51.522;10.702;2022-09-04T07:37:07;8.80;;;5.20;;
45620;SDS011;31345;51.522;10.702;2022-09-04T07:39:44;7.85;;;4.72;;
45620;SDS011;31345;51.522;10.702;2022-09-04T07:42:18;10.55;;;5.32;;
45620;SDS011;31345;51.522;10.702;2022-09-04T07:44:53;7.50;;;5.20;;
45620;SDS011;31345;51.522;10.702;2022-09-04T07:47:29;8.77;;;5.30;;
45620;SDS011;31345;51.522;10.702;2022-09-04T07:50:06;10.63;;;5.95;;
45620;SDS011;31345;51.522;10.702;2022-09-04T07:52:42;10.68;;;5.60;;
45620;SDS011;31345;51.522;10.702;2022-09-04T07:55:27;9.13;;;5.95;;
45620;SDS011;31345;51.522;10.702;2022-09-04T07:58:25;10.80;;;5.28;;
45620;SDS011;31345;51.522;10.702;2022-09-04T08:01:10;12.50;;;6.10;;
45620;SDS011;31345;51.522;10.702;2022-09-04T08:03:52;11.77;;;6.57;;
45620;SDS011;31345;51.522;10.702;2022-09-04T08:06:34;11.48;;;6.28;;
45620;SDS011;31345;51.522;10.702;2022-09-04T08:09:21;9.30;;;5.32;;
45620;SDS011;31345;51.522;10.702;2022-09-04T08:12:15;8.73;;;5.72;;
45620;SDS011;31345;51.522;10.702;2022-09-04T08:15:01;11.05;;;6.57;;
45620;SDS011;31345;51.522;10.702;2022-09-04T08:17:52;9.48;;;6.32;;
45620;SDS011;31345;51.522;10.702;2022-09-04T08:20:33;12.43;;;7.07;;
45620;SDS011;31345;51.522;10.702;2022-09-04T08:26:07;14.00;;;7.22;;
45620;SDS011;31345;51.522;10.702;2022-09-04T08:28:53;8.55;;;5.78;;
45620;SDS011;31345;51.522;10.702;2022-09-04T08:31:39;9.35;;;6.68;;
45620;SDS011;31345;51.522;10.702;2022-09-04T08:34:18;12.48;;;6.60;;
45620;SDS011;31345;51.522;10.702;2022-09-04T08:37:04;7.95;;;6.00;;
45620;SDS011;31345;51.522;10.702;2022-09-04T08:39:45;8.70;;;5.28;;
45620;SDS011;31345;51.522;10.702;2022-09-04T08:42:37;9.93;;;5.30;;
45620;SDS011;31345;51.522;10.702;2022-09-04T08:45:36;8.80;;;5.32;;
45620;SDS011;31345;51.522;10.702;2022-09-04T08:48:46;9.65;;;5.03;;
45620;SDS011;31345;51.522;10.702;2022-09-04T08:51:44;8.88;;;5.22;;
45620;SDS011;31345;51.522;10.702;2022-09-04T08:57:51;6.55;;;4.80;;
45620;SDS011;31345;51.522;10.702;2022-09-04T09:00:32;8.50;;;4.75;;
45620;SDS011;31345;51.522;10.702;2022-09-04T09:03:23;10.80;;;4.40;;
45620;SDS011;31345;51.522;10.702;2022-09-04T09:13:09;8.13;;;4.40;;
45620;SDS011;31345;51.522;10.702;2022-09-04T09:16:09;8.70;;;3.85;;
45620;SDS011;31345;51.522;10.702;2022-09-04T09:18:52;5.72;;;3.97;;
45620;SDS011;31345;51.522;10.702;2022-09-04T09:21:39;13.77;;;4.15;;
45620;SDS011;31345;51.522;10.702;2022-09-04T09:24:25;6.85;;;3.72;;
45620;SDS011;31345;51.522;10.702;2022-09-04T09:27:25;4.78;;;3.38;;
45620;SDS011;31345;51.522;10.702;2022-09-04T09:30:18;7.97;;;4.10;;
45620;SDS011;31345;51.522;10.702;2022-09-04T09:35:54;10.23;;;3.55;;
45620;SDS011;31345;51.522;10.702;2022-09-04T09:44:54;5.85;;;3.45;;
45620;SDS011;31345;51.522;10.702;2022-09-04T09:47:47;6.60;;;3.22;;
45620;SDS011;31345;51.522;10.702;2022-09-04T09:53:50;5.78;;;2.97;;
45620;SDS011;31345;51.522;10.702;2022-09-04T09:56:55;6.93;;;3.05;;
45620;SDS011;31345;51.522;10.702;2022-09-04T10:05:56;4.32;;;2.92;;
45620;SDS011;31345;51.522;10.702;2022-09-04T10:11:43;5.10;;;3.03;;
45620;SDS011;31345;51.522;10.702;2022-09-04T10:17:38;6.57;;;2.92;;
45620;SDS011;31345;51.522;10.702;2022-09-04T10:26:55;6.13;;;2.25;;
45620;SDS011;31345;51.522;10.702;2022-09-04T10:30:03;2.95;;;2.17;;
45620;SDS011;31345;51.522;10.702;2022-09-04T10:35:41;3.55;;;2.13;;
45620;SDS011;31345;51.522;10.702;2022-09-04T10:38:28;6.20;;;2.67;;
45620;SDS011;31345;51.522;10.702;2022-09-04T10:41:18;4.13;;;2.42;;
45620;SDS011;31345;51.522;10.702;2022-09-04T10:44:03;2.95;;;2.15;;
45620;SDS011;31345;51.522;10.702;2022-09-04T10:46:59;5.03;;;2.45;;
45620;SDS011;31345;51.522;10.702;2022-09-04T10:49:44;5.35;;;2.70;;
45620;SDS011;31345;51.522;10.702;2022-09-04T10:58:47;7.88;;;2.75;;
45620;SDS011;31345;51.522;10.702;2022-09-04T11:07:35;6.13;;;2.72;;
45620;SDS011;31345;51.522;10.702;2022-09-04T11:10:30;7.43;;;2.90;;
45620;SDS011;31345;51.522;10.702;2022-09-04T11:16:11;6.47;;;2.78;;
45620;SDS011;31345;51.522;10.702;2022-09-04T11:19:00;4.57;;;2.47;;
45620;SDS011;31345;51.522;10.702;2022-09-04T11:21:49;3.85;;;2.50;;
45620;SDS011;31345;51.522;10.702;2022-09-04T11:27:55;6.85;;;3.10;;
45620;SDS011;31345;51.522;10.702;2022-09-04T11:30:37;6.13;;;2.60;;
45620;SDS011;31345;51.522;10.702;2022-09-04T11:33:35;5.53;;;2.35;;
45620;SDS011;31345;51.522;10.702;2022-09-04T11:42:32;4.72;;;2.58;;
45620;SDS011;31345;51.522;10.702;2022-09-04T11:45:17;5.43;;;2.60;;
45620;SDS011;31345;51.522;10.702;2022-09-04T11:48:11;4.60;;;2.17;;
45620;SDS011;31345;51.522;10.702;2022-09-04T11:51:00;5.30;;;2.15;;
45620;SDS011;31345;51.522;10.702;2022-09-04T11:53:47;3.25;;;2.30;;
45620;SDS011;31345;51.522;10.702;2022-09-04T11:56:40;5.15;;;2.17;;
45620;SDS011;31345;51.522;10.702;2022-09-04T11:59:23;3.95;;;2.17;;
45620;SDS011;31345;51.522;10.702;2022-09-04T12:02:14;5.72;;;2.50;;
45620;SDS011;31345;51.522;10.702;2022-09-04T12:05:03;6.78;;;2.30;;
45620;SDS011;31345;51.522;10.702;2022-09-04T12:07:43;5.03;;;2.42;;
45620;SDS011;31345;51.522;10.702;2022-09-04T12:10:30;3.08;;;1.92;;
45620;SDS011;31345;51.522;10.702;2022-09-04T12:13:11;4.70;;;2.20;;
45620;SDS011;31345;51.522;10.702;2022-09-04T12:15:56;3.25;;;2.30;;
45620;SDS011;31345;51.522;10.702;2022-09-04T12:19:02;4.72;;;2.60;;
45620;SDS011;31345;51.522;10.702;2022-09-04T12:22:03;3.90;;;2.38;;
45620;SDS011;31345;51.522;10.702;2022-09-04T12:28:12;5.22;;;2.35;;
45620;SDS011;31345;51.522;10.702;2022-09-04T12:31:03;6.05;;;2.30;;
45620;SDS011;31345;51.522;10.702;2022-09-04T12:39:58;3.55;;;2.25;;
45620;SDS011;31345;51.522;10.702;2022-09-04T12:42:51;5.57;;;2.55;;
45620;SDS011;31345;51.522;10.702;2022-09-04T12:45:28;5.22;;;2.22;;
45620;SDS011;31345;51.522;10.702;2022-09-04T12:48:06;4.03;;;2.28;;
45620;SDS011;31345;51.522;10.702;2022-09-04T12:50:41;4.20;;;2.58;;
45620;SDS011;31345;51.522;10.702;2022-09-04T12:53:36;2.97;;;2.03;;
45620;SDS011;31345;51.522;10.702;2022-09-04T12:56:14;5.03;;;2.72;;
45620;SDS011;31345;51.522;10.702;2022-09-04T12:58:56;5.30;;;2.30;;
45620;SDS011;31345;51.522;10.702;2022-09-04T13:01:40;3.95;;;2.15;;
45620;SDS011;31345;51.522;10.702;2022-09-04T13:04:20;3.50;;;2.30;;
45620;SDS011;31345;51.522;10.702;2022-09-04T13:06:53;3.78;;;2.72;;
45620;SDS011;31345;51.522;10.702;2022-09-04T13:09:36;5.65;;;2.78;;
45620;SDS011;31345;51.522;10.702;2022-09-04T13:12:14;8.35;;;2.90;;
45620;SDS011;31345;51.522;10.702;2022-09-04T13:17:53;5.72;;;2.60;;
45620;SDS011;31345;51.522;10.702;2022-09-04T13:20:36;10.30;;;3.15;;
45620;SDS011;31345;51.522;10.702;2022-09-04T13:23:15;4.00;;;2.58;;
45620;SDS011;31345;51.522;10.702;2022-09-04T13:26:01;4.68;;;2.60;;
45620;SDS011;31345;51.522;10.702;2022-09-04T13:28:41;3.28;;;2.30;;
45620;SDS011;31345;51.522;10.702;2022-09-04T13:31:31;8.80;;;3.10;;
45620;SDS011;31345;51.522;10.702;2022-09-04T13:34:22;5.53;;;2.70;;
45620;SDS011;31345;51.522;10.702;2022-09-04T13:37:02;4.40;;;2.30;;
45620;SDS011;31345;51.522;10.702;2022-09-04T13:39:41;6.45;;;2.72;;
45620;SDS011;31345;51.522;10.702;2022-09-04T13:42:26;5.65;;;2.50;;
45620;SDS011;31345;51.522;10.702;2022-09-04T13:45:12;7.43;;;2.60;;
45620;SDS011;31345;51.522;10.702;2022-09-04T13:47:48;4.47;;;2.70;;
45620;SDS011;31345;51.522;10.702;2022-09-04T13:50:23;6.28;;;2.60;;
45620;SDS011;31345;51.522;10.702;2022-09-04T13:52:57;4.10;;;2.58;;
45620;SDS011;31345;51.522;10.702;2022-09-04T13:55:33;3.83;;;2.20;;
45620;SDS011;31345;51.522;10.702;2022-09-04T13:58:06;3.65;;;2.13;;
45620;SDS011;31345;51.522;10.702;2022-09-04T14:00:40;3.47;;;2.40;;
45620;SDS011;31345;51.522;10.702;2022-09-04T14:03:11;4.28;;;2.45;;
45620;SDS011;31345;51.522;10.702;2022-09-04T14:05:44;6.35;;;2.28;;
45620;SDS011;31345;51.522;10.702;2022-09-04T14:08:12;6.97;;;2.20;;
45620;SDS011;31345;51.522;10.702;2022-09-04T14:13:41;4.00;;;2.20;;
45620;SDS011;31345;51.522;10.702;2022-09-04T14:16:22;6.13;;;2.85;;
45620;SDS011;31345;51.522;10.702;2022-09-04T14:18:57;9.00;;;2.40;;
45620;SDS011;31345;51.522;10.702;2022-09-04T14:21:43;5.38;;;2.17;;
45620;SDS011;31345;51.522;10.702;2022-09-04T14:24:24;4.75;;;2.38;;
45620;SDS011;31345;51.522;10.702;2022-09-04T14:27:02;25.15;;;3.90;;
45620;SDS011;31345;51.522;10.702;2022-09-04T14:29:48;11.02;;;2.50;;
45620;SDS011;31345;51.522;10.702;2022-09-04T14:32:23;4.72;;;2.20;;
45620;SDS011;31345;51.522;10.702;2022-09-04T14:35:00;11.35;;;2.53;;
45620;SDS011;31345;51.522;10.702;2022-09-04T14:37:47;4.70;;;2.20;;
45620;SDS011;31345;51.522;10.702;2022-09-04T14:40:26;3.13;;;2.05;;
45620;SDS011;31345;51.522;10.702;2022-09-04T14:43:00;5.88;;;2.30;;
45620;SDS011;31345;51.522;10.702;2022-09-04T14:45:52;6.07;;;2.40;;
45620;SDS011;31345;51.522;10.702;2022-09-04T14:48:29;14.30;;;3.22;;
45620;SDS011;31345;51.522;10.702;2022-09-04T14:51:09;5.38;;;2.28;;
45620;SDS011;31345;51.522;10.702;2022-09-04T14:53:46;15.90;;;2.90;;
45620;SDS011;31345;51.522;10.702;2022-09-04T14:56:18;14.85;;;3.15;;
45620;SDS011;31345;51.522;10.702;2022-09-04T14:58:52;10.70;;;3.00;;
45620;SDS011;31345;51.522;10.702;2022-09-04T15:01:24;4.10;;;2.40;;
45620;SDS011;31345;51.522;10.702;2022-09-04T15:03:54;7.68;;;2.50;;
45620;SDS011;31345;51.522;10.702;2022-09-04T15:06:26;6.05;;;2.10;;
45620;SDS011;31345;51.522;10.702;2022-09-04T15:11:51;6.18;;;2.50;;
45620;SDS011;31345;51.522;10.702;2022-09-04T15:14:22;5.05;;;2.22;;
45620;SDS011;31345;51.522;10.702;2022-09-04T15:16:58;6.00;;;2.25;;
45620;SDS011;31345;51.522;10.702;2022-09-04T15:19:32;3.17;;;2.00;;
45620;SDS011;31345;51.522;10.702;2022-09-04T15:22:09;3.88;;;1.98;;
45620;SDS011;31345;51.522;10.702;2022-09-04T15:24:48;3.60;;;2.35;;
45620;SDS011;31345;51.522;10.702;2022-09-04T15:27:21;2.88;;;1.95;;
45620;SDS011;31345;51.522;10.702;2022-09-04T15:29:56;6.20;;;2.15;;
45620;SDS011;31345;51.522;10.702;2022-09-04T15:32:31;3.90;;;2.00;;
45620;SDS011;31345;51.522;10.702;2022-09-04T15:35:05;4.72;;;2.45;;
45620;SDS011;31345;51.522;10.702;2022-09-04T15:37:37;5.65;;;2.22;;
45620;SDS011;31345;51.522;10.702;2022-09-04T15:40:07;11.80;;;2.95;;
45620;SDS011;31345;51.522;10.702;2022-09-04T15:42:38;9.52;;;2.78;;
45620;SDS011;31345;51.522;10.702;2022-09-04T15:45:15;19.63;;;3.22;;
45620;SDS011;31345;51.522;10.702;2022-09-04T15:50:49;3.90;;;2.22;;
45620;SDS011;31345;51.522;10.702;2022-09-04T15:53:24;12.57;;;2.72;;
45620;SDS011;31345;51.522;10.702;2022-09-04T15:56:03;13.63;;;2.80;;
45620;SDS011;31345;51.522;10.702;2022-09-04T15:58:37;18.30;;;3.03;;
45620;SDS011;31345;51.522;10.702;2022-09-04T16:01:12;28.38;;;3.97;;
45620;SDS011;31345;51.522;10.702;2022-09-04T16:06:30;4.95;;;2.35;;
45620;SDS011;31345;51.522;10.702;2022-09-04T16:09:03;3.25;;;2.15;;
45620;SDS011;31345;51.522;10.702;2022-09-04T16:11:37;7.82;;;2.50;;
45620;SDS011;31345;51.522;10.702;2022-09-04T16:14:10;4.65;;;2.10;;
45620;SDS011;31345;51.522;10.702;2022-09-04T16:16:47;5.75;;;1.92;;
45620;SDS011;31345;51.522;10.702;2022-09-04T16:19:20;4.55;;;1.95;;
45620;SDS011;31345;51.522;10.702;2022-09-04T16:21:57;7.80;;;2.50;;
45620;SDS011;31345;51.522;10.702;2022-09-04T16:24:32;17.17;;;2.80;;
45620;SDS011;31345;51.522;10.702;2022-09-04T16:27:10;14.25;;;3.33;;
45620;SDS011;31345;51.522;10.702;2022-09-04T16:29:44;8.55;;;2.65;;
45620;SDS011;31345;51.522;10.702;2022-09-04T16:32:19;5.78;;;2.50;;
45620;SDS011;31345;51.522;10.702;2022-09-04T16:34:48;5.05;;;2.20;;
45620;SDS011;31345;51.522;10.702;2022-09-04T16:37:20;20.10;;;3.35;;
45620;SDS011;31345;51.522;10.702;2022-09-04T16:39:55;7.43;;;2.33;;
45620;SDS011;31345;51.522;10.702;2022-09-04T16:42:34;5.10;;;2.60;;
45620;SDS011;31345;51.522;10.702;2022-09-04T16:45:07;5.07;;;2.25;;
45620;SDS011;31345;51.522;10.702;2022-09-04T16:47:43;4.75;;;1.98;;
45620;SDS011;31345;51.522;10.702;2022-09-04T16:50:17;4.47;;;2.10;;
45620;SDS011;31345;51.522;10.702;2022-09-04T16:52:55;4.97;;;2.08;;
45620;SDS011;31345;51.522;10.702;2022-09-04T16:55:31;6.10;;;2.25;;
45620;SDS011;31345;51.522;10.702;2022-09-04T16:58:12;3.47;;;2.00;;
45620;SDS011;31345;51.522;10.702;2022-09-04T17:00:52;3.80;;;2.15;;
45620;SDS011;31345;51.522;10.702;2022-09-04T17:03:29;6.57;;;2.80;;
45620;SDS011;31345;51.522;10.702;2022-09-04T17:06:05;4.85;;;2.63;;
45620;SDS011;31345;51.522;10.702;2022-09-04T17:08:44;3.10;;;2.33;;
45620;SDS011;31345;51.522;10.702;2022-09-04T17:11:16;3.40;;;2.55;;
45620;SDS011;31345;51.522;10.702;2022-09-04T17:13:51;4.25;;;2.63;;
45620;SDS011;31345;51.522;10.702;2022-09-04T17:16:30;6.80;;;2.55;;
45620;SDS011;31345;51.522;10.702;2022-09-04T17:19:02;5.93;;;2.60;;
45620;SDS011;31345;51.522;10.702;2022-09-04T17:21:33;4.65;;;3.00;;
45620;SDS011;31345;51.522;10.702;2022-09-04T17:24:25;7.50;;;3.28;;
45620;SDS011;31345;51.522;10.702;2022-09-04T17:27:00;5.20;;;2.97;;
45620;SDS011;31345;51.522;10.702;2022-09-04T17:29:35;4.80;;;2.78;;
45620;SDS011;31345;51.522;10.702;2022-09-04T17:32:12;4.80;;;3.38;;
45620;SDS011;31345;51.522;10.702;2022-09-04T17:34:47;8.38;;;3.28;;
45620;SDS011;31345;51.522;10.702;2022-09-04T17:37:21;5.40;;;3.40;;
45620;SDS011;31345;51.522;10.702;2022-09-04T17:39:57;5.50;;;3.15;;
45620;SDS011;31345;51.522;10.702;2022-09-04T17:42:27;5.30;;;3.65;;
45620;SDS011;31345;51.522;10.702;2022-09-04T17:45:06;5.70;;;3.00;;
45620;SDS011;31345;51.522;10.702;2022-09-04T17:47:42;4.80;;;3.40;;